Ghayl Ba Wazir, Yemen
Current Conditions -  °F | °C
As of 4:00 PM on Thursday 23 Oct 2014 (Local Time) from OYRN Reporting Station
Few Clouds Few Clouds  
Wind Chill: 88°   Ceiling: Unl
Heat Index: 94°   Visibility: 6mi
Dew Point: 72°   Wind: 7mph
Humidity: 58%   Direction: 160°SSE
Pressure: 29.88"   Gusts: NA
Location:  14.77°N, 49.37°E
Report Text: OYRN 231300Z 16006KT 9999 FEW025 31/22 Q1012
Loading
Personal Weather Stations






























Interactive Weather Map
Tropical Storm Tracking
New forecast layout! Learn more

10-Day Weather Forecast

Advertisements
Track Severe Weather on mobile